Time,TemperatureF,DewpointF,PressureIn,WindDirection,WindDirectionDegrees,WindSpeedMPH,WindSpeedGustMPH,Humidity,HourlyPrecipIn,Conditions,Clouds,dailyrainin,SoftwareType,DateUTC
2013-09-06 00:04:00,63.5,59.9,29.82,SSE,153,2.0,5.0,88,0.00,SCT,SCT,0.00,WeatherDisplay:10.37,2013-09-06 07:04:00,
2013-09-06 00:14:00,63.3,59.7,29.83,South,179,1.0,3.0,88,0.00,OVC,OVC,0.00,WeatherDisplay:10.37,2013-09-06 07:14:00,
2013-09-06 00:24:00,63.3,59.7,29.83,SSE,160,1.0,4.0,88,0.00,OVC,OVC,0.00,WeatherDisplay:10.37,2013-09-06 07:24:00,
2013-09-06 00:34:00,63.1,59.5,29.85,NNW,327,1.0,2.0,88,0.00,OVC,OVC,0.00,WeatherDisplay:10.37,2013-09-06 07:34:00,
2013-09-06 00:44:00,63.1,59.5,29.85,WNW,302,0.0,0.0,88,0.00,OVC,OVC,0.00,WeatherDisplay:10.37,2013-09-06 07:44:00,
2013-09-06 00:54:00,63.1,59.8,29.84,WNW,293,0.0,0.0,89,0.00,OVC,OVC,0.00,WeatherDisplay:10.37,2013-09-06 07:54:00,
2013-09-06 01:04:00,63.0,59.7,29.84,ESE,123,0.0,0.0,89,0.00,OVC,OVC,0.00,WeatherDisplay:10.37,2013-09-06 08:04:00,
2013-09-06 01:09:00,63.1,59.8,29.84,SSE,157,0.0,0.0,89,0.00, +RA, +RA,0.00,WeatherDisplay:10.37,2013-09-06 08:09:00,
2013-09-06 01:14:00,63.0,59.7,29.83,ESE,107,0.0,0.0,89,0.00, +RA, +RA,0.00,WeatherDisplay:10.37,2013-09-06 08:14:00,
2013-09-06 01:24:00,63.0,59.7,29.83,North,351,0.0,0.0,89,0.00, +RA, +RA,0.00,WeatherDisplay:10.37,2013-09-06 08:24:00,
2013-09-06 01:34:00,63.0,59.7,29.83,North,356,0.0,0.0,89,0.00, +RA, +RA,0.00,WeatherDisplay:10.37,2013-09-06 08:34:00,
2013-09-06 01:44:00,62.8,59.5,29.83,North,356,0.0,0.0,89,0.00, +RA, +RA,0.00,WeatherDisplay:10.37,2013-09-06 08:44:00,
2013-09-06 01:54:00,62.8,59.5,29.82,West,268,0.0,0.0,89,0.00, +RA, +RA,0.00,WeatherDisplay:10.37,2013-09-06 08:54:00,
2013-09-06 02:04:00,62.8,59.5,29.82,SSW,197,0.0,0.0,89,0.00, +RA, +RA,0.00,WeatherDisplay:10.37,2013-09-06 09:04:00,
2013-09-06 02:09:00,62.8,59.5,29.82,SSE,157,0.0,0.0,89,0.00,OVC,OVC,0.00,WeatherDisplay:10.37,2013-09-06 09:09:00,
2013-09-06 02:14:00,62.6,59.3,29.81,SE,130,0.0,0.0,89,0.00,OVC,OVC,0.00,WeatherDisplay:10.37,2013-09-06 09:14:00,
2013-09-06 02:24:00,62.6,59.3,29.81,SSW,192,0.0,0.0,89,0.00,OVC,OVC,0.00,WeatherDisplay:10.37,2013-09-06 09:24:00,
2013-09-06 02:34:00,62.6,59.3,29.79,SE,124,0.0,2.0,89,0.00,OVC,OVC,0.00,WeatherDisplay:10.37,2013-09-06 09:34:00,
2013-09-06 02:44:00,62.6,59.3,29.79,SE,145,0.0,0.0,89,0.00,OVC,OVC,0.00,WeatherDisplay:10.37,2013-09-06 09:44:00,
2013-09-06 02:54:00,62.6,59.3,29.79,SSE,151,0.0,2.0,89,0.00,OVC,OVC,0.00,WeatherDisplay:10.37,2013-09-06 09:54:00,
2013-09-06 03:00:00,62.4,59.1,29.79,ESE,104,0.0,1.0,89,0.00,OVC,OVC,0.00,WeatherDisplay:10.37,2013-09-06 10:00:00,
2013-09-06 03:09:00,62.4,59.1,29.79,NW,324,0.0,0.0,89,0.00,OVC,OVC,0.00,WeatherDisplay:10.37,2013-09-06 10:09:00,
2013-09-06 03:14:00,62.4,59.1,29.81,NW,317,0.0,0.0,89,0.00,OVC,OVC,0.00,WeatherDisplay:10.37,2013-09-06 10:14:00,
2013-09-06 03:24:00,62.4,59.1,29.81,WNW,282,0.0,0.0,89,0.00,OVC,OVC,0.00,WeatherDisplay:10.37,2013-09-06 10:24:00,
2013-09-06 03:34:00,62.4,59.4,29.80,WNW,297,0.0,0.0,90,0.00,OVC,OVC,0.00,WeatherDisplay:10.37,2013-09-06 10:34:00,
2013-09-06 03:44:00,62.4,59.4,29.80,WNW,299,0.0,0.0,90,0.00,OVC,OVC,0.00,WeatherDisplay:10.37,2013-09-06 10:44:00,
2013-09-06 03:54:00,62.4,59.4,29.80,NW,306,0.0,0.0,90,0.00,OVC,OVC,0.00,WeatherDisplay:10.37,2013-09-06 10:54:00,
2013-09-06 04:04:00,62.4,59.4,29.80,NNW,336,0.0,0.0,90,0.00,OVC,OVC,0.00,WeatherDisplay:10.37,2013-09-06 11:04:00,
2013-09-06 04:14:00,62.4,59.4,29.80,SSW,193,0.0,0.0,90,0.00,-RA,-RA,0.00,WeatherDisplay:10.37,2013-09-06 11:14:00,
2013-09-06 04:24:00,62.4,59.4,29.80,South,170,0.0,0.0,90,0.00,-RA,-RA,0.00,WeatherDisplay:10.37,2013-09-06 11:24:00,
2013-09-06 04:34:00,62.2,59.3,29.80,SSE,148,0.0,0.0,90,0.00,-RA,-RA,0.00,WeatherDisplay:10.37,2013-09-06 11:34:00,
2013-09-06 04:44:00,62.4,59.4,29.80,WSW,238,0.0,0.0,90,0.00,-RA,-RA,0.00,WeatherDisplay:10.37,2013-09-06 11:44:00,
2013-09-06 04:49:00,62.4,59.4,29.80,WSW,240,0.0,0.0,90,0.00,-RA,-RA,0.00,WeatherDisplay:10.37,2013-09-06 11:49:00,
2013-09-06 04:54:00,62.2,59.3,29.80,WSW,244,0.0,0.0,90,0.00,-RA,-RA,0.00,WeatherDisplay:10.37,2013-09-06 11:54:00,
2013-09-06 05:04:00,62.2,59.3,29.80,SW,235,0.0,1.0,90,0.00,-RA,-RA,0.00,WeatherDisplay:10.37,2013-09-06 12:04:00,
2013-09-06 05:09:00,62.2,59.3,29.80,South,182,0.0,1.0,90,0.00,-RA,-RA,0.00,WeatherDisplay:10.37,2013-09-06 12:09:00,
2013-09-06 05:14:00,62.2,59.3,29.80,SSE,151,0.0,1.0,90,0.00,-RA,-RA,0.00,WeatherDisplay:10.37,2013-09-06 12:14:00,
2013-09-06 05:24:00,62.4,59.4,29.80,SSE,148,0.0,0.0,90,0.00,-RA,-RA,0.00,WeatherDisplay:10.37,2013-09-06 12:24:00,
2013-09-06 05:34:00,62.2,59.6,29.80,ESE,120,0.0,1.0,91,0.00,-RA,-RA,0.00,WeatherDisplay:10.37,2013-09-06 12:34:00,
2013-09-06 05:44:00,62.2,59.6,29.80,SSE,167,0.0,0.0,91,0.00,-RA,-RA,0.00,WeatherDisplay:10.37,2013-09-06 12:44:00,
2013-09-06 05:49:00,62.2,59.6,29.80,SSW,197,0.0,0.0,91,0.00,-RA,-RA,0.00,WeatherDisplay:10.37,2013-09-06 12:49:00,
2013-09-06 05:54:00,62.2,59.6,29.80,NW,318,0.0,0.0,91,0.00,-RA,-RA,0.00,WeatherDisplay:10.37,2013-09-06 12:54:00,
2013-09-06 06:04:00,62.2,59.6,29.80,SE,126,0.0,0.0,91,0.00,-RA,-RA,0.00,WeatherDisplay:10.37,2013-09-06 13:04:00,
2013-09-06 06:09:00,62.2,59.6,29.80,SSW,193,0.0,0.0,91,0.00,-RA,-RA,0.00,WeatherDisplay:10.37,2013-09-06 13:09:00,
2013-09-06 06:14:00,62.2,59.6,29.81,SW,231,0.0,0.0,91,0.00,-RA,-RA,0.00,WeatherDisplay:10.37,2013-09-06 13:14:00,
2013-09-06 06:24:00,62.4,59.8,29.81,NNW,337,0.0,0.0,91,0.00,-RA,-RA,0.00,WeatherDisplay:10.37,2013-09-06 13:24:00,
2013-09-06 06:34:00,62.4,59.8,29.82,NE,47,0.0,0.0,91,0.00,-RA,-RA,0.00,WeatherDisplay:10.37,2013-09-06 13:34:00,
2013-09-06 06:44:00,62.4,59.8,29.82,WNW,287,0.0,0.0,91,0.00,-RA,-RA,0.00,WeatherDisplay:10.37,2013-09-06 13:44:00,
2013-09-06 06:54:00,62.4,59.8,29.82,SW,222,0.0,0.0,91,0.00,-RA,-RA,0.00,WeatherDisplay:10.37,2013-09-06 13:54:00,
2013-09-06 07:04:00,62.4,59.8,29.82,ENE,71,0.0,0.0,91,0.00,-RA,-RA,0.00,WeatherDisplay:10.37,2013-09-06 14:04:00,
2013-09-06 07:09:00,62.4,59.8,29.82,NE,47,0.0,0.0,91,0.00,OVC,OVC,0.00,WeatherDisplay:10.37,2013-09-06 14:09:00,
2013-09-06 07:14:00,62.6,59.9,29.83,ENE,67,0.0,0.0,91,0.00,OVC,OVC,0.00,WeatherDisplay:10.37,2013-09-06 14:14:00,
2013-09-06 07:24:00,62.6,59.9,29.83,WNW,286,0.0,0.0,91,0.00,OVC,OVC,0.00,WeatherDisplay:10.37,2013-09-06 14:24:00,
2013-09-06 07:34:00,62.6,59.9,29.84,NW,317,0.0,0.0,91,0.00,OVC,OVC,0.00,WeatherDisplay:10.37,2013-09-06 14:34:00,
2013-09-06 07:39:00,62.6,59.9,29.84,WSW,257,0.0,0.0,91,0.00,OVC,OVC,0.00,WeatherDisplay:10.37,2013-09-06 14:39:00,
2013-09-06 07:44:00,62.8,60.1,29.84,SW,214,0.0,0.0,91,0.00,OVC,OVC,0.00,WeatherDisplay:10.37,2013-09-06 14:44:00,
2013-09-06 07:54:00,62.6,59.9,29.84,West,278,0.0,0.0,91,0.00,OVC,OVC,0.00,WeatherDisplay:10.37,2013-09-06 14:54:00,
2013-09-06 08:04:00,62.8,60.1,29.84,WNW,295,0.0,0.0,91,0.00,OVC,OVC,0.00,WeatherDisplay:10.37,2013-09-06 15:04:00,
2013-09-06 08:09:00,62.8,60.1,29.84,NNW,340,0.0,0.0,91,0.00,OVC,OVC,0.00,WeatherDisplay:10.37,2013-09-06 15:09:00,
2013-09-06 08:14:00,63.0,60.3,29.85,North,355,0.0,1.0,91,0.00,OVC,OVC,0.00,WeatherDisplay:10.37,2013-09-06 15:14:00,
2013-09-06 08:24:00,63.1,60.5,29.85,NE,38,0.0,0.0,91,0.00,OVC,OVC,0.00,WeatherDisplay:10.37,2013-09-06 15:24:00,
2013-09-06 08:34:00,63.1,60.5,29.85,NNE,26,0.0,0.0,91,0.00,OVC,OVC,0.00,WeatherDisplay:10.37,2013-09-06 15:34:00,
2013-09-06 08:44:00,63.3,61.0,29.85,North,4,0.0,0.0,92,0.00,OVC,OVC,0.00,WeatherDisplay:10.37,2013-09-06 15:44:00,
2013-09-06 08:54:00,63.3,60.6,29.86,West,260,0.0,0.0,91,0.00,OVC,OVC,0.00,WeatherDisplay:10.37,2013-09-06 15:54:00,
2013-09-06 09:04:00,63.5,60.8,29.86,ESE,113,0.0,0.0,91,0.00,OVC,OVC,0.00,WeatherDisplay:10.37,2013-09-06 16:04:00,
2013-09-06 09:09:00,63.5,60.8,29.86,NE,42,0.0,0.0,91,0.00,-RA,-RA,0.00,WeatherDisplay:10.37,2013-09-06 16:09:00,
2013-09-06 09:14:00,63.5,60.8,29.85,East,79,0.0,1.0,91,0.00,-RA,-RA,0.00,WeatherDisplay:10.37,2013-09-06 16:14:00,
2013-09-06 09:24:00,63.7,61.0,29.85,SE,131,0.0,1.0,91,0.00,-RA,-RA,0.00,WeatherDisplay:10.37,2013-09-06 16:24:00,
2013-09-06 09:34:00,63.9,61.2,29.86,NE,42,0.0,0.0,91,0.00,-RA,-RA,0.00,WeatherDisplay:10.37,2013-09-06 16:34:00,
2013-09-06 09:44:00,63.9,61.2,29.86,ENE,60,0.0,0.0,91,0.00,-RA,-RA,0.00,WeatherDisplay:10.37,2013-09-06 16:44:00,
2013-09-06 09:54:00,63.9,61.2,29.87,NE,47,0.0,0.0,91,0.00,-RA,-RA,0.00,WeatherDisplay:10.37,2013-09-06 16:54:00,
2013-09-06 10:04:00,63.9,61.2,29.87,NNE,26,0.0,0.0,91,0.00,-RA,-RA,0.00,WeatherDisplay:10.37,2013-09-06 17:04:00,
2013-09-06 10:09:00,63.9,61.2,29.87,WSW,257,0.0,1.0,91,0.00, +RA, +RA,0.00,WeatherDisplay:10.37,2013-09-06 17:09:00,
2013-09-06 10:14:00,63.9,61.2,29.87,South,186,0.0,2.0,91,0.00, +RA, +RA,0.00,WeatherDisplay:10.37,2013-09-06 17:14:00,
2013-09-06 10:24:00,64.0,61.4,29.87,SW,226,0.0,0.0,91,0.00, +RA, +RA,0.00,WeatherDisplay:10.37,2013-09-06 17:24:00,
2013-09-06 10:34:00,64.2,61.5,29.86,WNW,303,0.0,2.0,91,0.00, +RA, +RA,0.00,WeatherDisplay:10.37,2013-09-06 17:34:00,
2013-09-06 10:44:00,64.4,61.7,29.86,WNW,285,0.0,1.0,91,0.00, +RA, +RA,0.00,WeatherDisplay:10.37,2013-09-06 17:44:00,
2013-09-06 10:54:00,64.2,61.5,29.88,West,261,0.0,0.0,91,0.00, +RA, +RA,0.00,WeatherDisplay:10.37,2013-09-06 17:54:00,
2013-09-06 11:04:00,64.4,61.7,29.88,NE,41,0.0,0.0,91,0.00, +RA, +RA,0.00,WeatherDisplay:10.37,2013-09-06 18:04:00,
2013-09-06 11:09:00,64.6,61.9,29.88,ESE,118,0.0,0.0,91,0.00,-RA,-RA,0.00,WeatherDisplay:10.37,2013-09-06 18:09:00,
2013-09-06 11:14:00,64.6,61.9,29.88,SSE,148,0.0,1.0,91,0.00,-RA,-RA,0.00,WeatherDisplay:10.37,2013-09-06 18:14:00,
2013-09-06 11:24:00,64.6,61.9,29.88,South,169,0.0,0.0,91,0.00,-RA,-RA,0.00,WeatherDisplay:10.37,2013-09-06 18:24:00,
2013-09-06 11:29:00,64.6,61.9,29.88,ESE,112,0.0,1.0,91,0.00,-RA,-RA,0.00,WeatherDisplay:10.37,2013-09-06 18:29:00,
2013-09-06 11:34:00,64.8,62.1,29.89,East,100,0.0,1.0,91,0.00,-RA,-RA,0.00,WeatherDisplay:10.37,2013-09-06 18:34:00,
2013-09-06 11:39:00,64.9,62.2,29.89,East,84,0.0,0.0,91,0.00,-RA,-RA,0.00,WeatherDisplay:10.37,2013-09-06 18:39:00,
2013-09-06 11:44:00,64.9,62.2,29.89,East,89,0.0,3.0,91,0.00,-RA,-RA,0.00,WeatherDisplay:10.37,2013-09-06 18:44:00,
2013-09-06 11:54:00,65.3,62.6,29.89,SE,139,0.0,1.0,91,0.00,-RA,-RA,0.00,WeatherDisplay:10.37,2013-09-06 18:54:00,
2013-09-06 12:04:00,65.5,62.8,29.89,SE,140,0.0,2.0,91,0.00,-RA,-RA,0.00,WeatherDisplay:10.37,2013-09-06 19:04:00,
2013-09-06 12:09:00,65.8,63.1,29.89,SE,126,0.0,2.0,91,0.00,OVC,OVC,0.00,WeatherDisplay:10.37,2013-09-06 19:09:00,
2013-09-06 12:14:00,66.0,63.3,29.88,SE,129,0.0,2.0,91,0.00,OVC,OVC,0.00,WeatherDisplay:10.37,2013-09-06 19:14:00,
2013-09-06 12:24:00,66.2,63.5,29.88,East,93,0.0,1.0,91,0.00,OVC,OVC,0.00,WeatherDisplay:10.37,2013-09-06 19:24:00,
2013-09-06 12:34:00,66.2,63.2,29.89,NE,45,0.0,0.0,90,0.00,OVC,OVC,0.00,WeatherDisplay:10.37,2013-09-06 19:34:00,
2013-09-06 12:44:00,66.0,63.0,29.89,WSW,249,0.0,0.0,90,0.00,OVC,OVC,0.00,WeatherDisplay:10.37,2013-09-06 19:44:00,
2013-09-06 12:54:00,66.0,63.0,29.89,ESE,123,0.0,1.0,90,0.00,OVC,OVC,0.00,WeatherDisplay:10.37,2013-09-06 19:54:00,
2013-09-06 13:04:00,66.0,63.0,29.89,SSW,200,0.0,0.0,90,0.00,OVC,OVC,0.00,WeatherDisplay:10.37,2013-09-06 20:04:00,
2013-09-06 13:09:00,66.0,63.0,29.89,South,186,0.0,1.0,90,0.00,OVC,OVC,0.00,WeatherDisplay:10.37,2013-09-06 20:09:00,
2013-09-06 13:14:00,66.2,63.2,29.88,SE,132,0.0,2.0,90,0.00,OVC,OVC,0.00,WeatherDisplay:10.37,2013-09-06 20:14:00,
2013-09-06 13:24:00,66.6,63.5,29.88,SSE,163,0.0,2.0,90,0.00,OVC,OVC,0.00,WeatherDisplay:10.37,2013-09-06 20:24:00,
2013-09-06 13:34:00,66.7,63.7,29.87,South,183,0.0,2.0,90,0.00,OVC,OVC,0.00,WeatherDisplay:10.37,2013-09-06 20:34:00,
2013-09-06 13:44:00,67.5,64.4,29.87,South,184,1.0,5.0,90,0.00,OVC,OVC,0.00,WeatherDisplay:10.37,2013-09-06 20:44:00,
2013-09-06 13:54:00,68.2,64.8,29.88,South,181,2.0,3.0,89,0.00,OVC,OVC,0.00,WeatherDisplay:10.37,2013-09-06 20:54:00,
2013-09-06 14:04:00,68.4,64.7,29.88,West,264,1.0,5.0,88,0.00,OVC,OVC,0.00,WeatherDisplay:10.37,2013-09-06 21:04:00,
2013-09-06 14:09:00,68.5,64.8,29.88,NNW,328,0.0,2.0,88,0.00,OVC,OVC,0.00,WeatherDisplay:10.37,2013-09-06 21:09:00,
2013-09-06 14:14:00,68.5,64.8,29.89,SE,145,0.0,2.0,88,0.00,OVC,OVC,0.00,WeatherDisplay:10.37,2013-09-06 21:14:00,
2013-09-06 14:24:00,68.7,64.7,29.89,SSW,201,1.0,5.0,87,0.00,OVC,OVC,0.00,WeatherDisplay:10.37,2013-09-06 21:24:00,
2013-09-06 14:34:00,68.9,64.5,29.89,South,184,1.0,4.0,86,0.00,OVC,OVC,0.00,WeatherDisplay:10.37,2013-09-06 21:34:00,
2013-09-06 14:39:00,68.9,64.5,29.89,South,188,1.0,5.0,86,0.00,OVC,OVC,0.00,WeatherDisplay:10.37,2013-09-06 21:39:00,
2013-09-06 14:44:00,69.1,64.4,29.89,SW,232,1.0,2.0,85,0.00,OVC,OVC,0.00,WeatherDisplay:10.37,2013-09-06 21:44:00,
2013-09-06 14:54:00,69.3,64.6,29.88,South,187,1.0,5.0,85,0.00,OVC,OVC,0.00,WeatherDisplay:10.37,2013-09-06 21:54:00,
2013-09-06 15:04:00,69.6,64.2,29.88,SSE,159,2.0,5.0,83,0.00,OVC,OVC,0.00,WeatherDisplay:10.37,2013-09-06 22:04:00,
2013-09-06 15:09:00,69.6,63.9,29.88,SSW,193,1.0,2.0,82,0.00,OVC,OVC,0.00,WeatherDisplay:10.37,2013-09-06 22:09:00,
2013-09-06 15:14:00,69.8,64.1,29.89,SSW,203,1.0,3.0,82,0.00,OVC,OVC,0.00,WeatherDisplay:10.37,2013-09-06 22:14:00,
2013-09-06 15:24:00,70.0,63.9,29.89,SSW,208,1.0,2.0,81,0.00,OVC,OVC,0.00,WeatherDisplay:10.37,2013-09-06 22:24:00,
2013-09-06 15:34:00,70.0,63.5,29.90,West,267,1.0,4.0,80,0.00,OVC,OVC,0.00,WeatherDisplay:10.37,2013-09-06 22:34:00,
2013-09-06 15:44:00,70.7,64.2,29.90,SW,236,1.0,5.0,80,0.00,OVC,OVC,0.00,WeatherDisplay:10.37,2013-09-06 22:44:00,
2013-09-06 15:54:00,71.4,64.2,29.89,SSE,152,2.0,5.0,78,0.00,OVC,OVC,0.00,WeatherDisplay:10.37,2013-09-06 22:54:00,
2013-09-06 16:04:00,71.2,63.7,29.89,South,185,2.0,4.0,77,0.00,OVC,OVC,0.00,WeatherDisplay:10.37,2013-09-06 23:04:00,
2013-09-06 16:09:00,71.1,63.9,29.89,West,261,2.0,2.0,78,0.00,BKN,BKN,0.00,WeatherDisplay:10.37,2013-09-06 23:09:00,
2013-09-06 16:14:00,70.9,63.3,29.90,SW,233,1.0,3.0,77,0.00,BKN,BKN,0.00,WeatherDisplay:10.37,2013-09-06 23:14:00,
2013-09-06 16:24:00,71.1,63.5,29.90,SE,137,1.0,7.0,77,0.00,BKN,BKN,0.00,WeatherDisplay:10.37,2013-09-06 23:24:00,
2013-09-06 16:34:00,70.7,62.8,29.90,SSW,195,2.0,3.0,76,0.00,BKN,BKN,0.00,WeatherDisplay:10.37,2013-09-06 23:34:00,
2013-09-06 16:44:00,70.7,63.1,29.90,West,266,1.0,2.0,77,0.00,BKN,BKN,0.00,WeatherDisplay:10.37,2013-09-06 23:44:00,
2013-09-06 16:54:00,70.3,62.8,29.90,East,89,1.0,3.0,77,0.00,BKN,BKN,0.00,WeatherDisplay:10.37,2013-09-06 23:54:00,
2013-09-06 17:04:00,70.3,63.2,29.90,WSW,251,1.0,3.0,78,0.00,BKN,BKN,0.00,WeatherDisplay:10.37,2013-09-07 00:04:00,
2013-09-06 17:09:00,70.2,63.0,29.90,SSW,200,1.0,3.0,78,0.00,CLR,CLR,0.00,WeatherDisplay:10.37,2013-09-07 00:09:00,
2013-09-06 17:14:00,70.0,62.8,29.90,South,176,1.0,5.0,78,0.00,CLR,CLR,0.00,WeatherDisplay:10.37,2013-09-07 00:14:00,
2013-09-06 17:24:00,69.8,63.0,29.90,SE,140,0.0,1.0,79,0.00,CLR,CLR,0.00,WeatherDisplay:10.37,2013-09-07 00:24:00,
2013-09-06 17:34:00,70.0,63.2,29.90,SE,145,2.0,7.0,79,0.00,CLR,CLR,0.00,WeatherDisplay:10.37,2013-09-07 00:34:00,
2013-09-06 17:40:00,70.2,63.3,29.90,SSE,149,2.0,5.0,79,0.00,CLR,CLR,0.00,WeatherDisplay:10.37,2013-09-07 00:40:00,
2013-09-06 17:49:00,70.2,63.0,29.90,SE,141,2.0,6.0,78,0.00,CLR,CLR,0.00,WeatherDisplay:10.37,2013-09-07 00:49:00,
2013-09-06 17:54:00,70.3,63.2,29.91,SSE,153,2.0,5.0,78,0.00,CLR,CLR,0.00,WeatherDisplay:10.37,2013-09-07 00:54:00,
2013-09-06 18:04:00,70.2,63.0,29.91,South,170,1.0,2.0,78,0.00,CLR,CLR,0.00,WeatherDisplay:10.37,2013-09-07 01:04:00,
2013-09-06 18:09:00,70.2,63.0,29.91,South,171,1.0,3.0,78,0.00,BKN,BKN,0.00,WeatherDisplay:10.37,2013-09-07 01:09:00,
2013-09-06 18:15:00,70.0,62.8,29.91,SSW,203,1.0,4.0,78,0.00,BKN,BKN,0.00,WeatherDisplay:10.37,2013-09-07 01:15:00,
2013-09-06 18:25:00,69.8,62.6,29.91,WSW,246,1.0,6.0,78,0.00,BKN,BKN,0.00,WeatherDisplay:10.37,2013-09-07 01:25:00,
2013-09-06 18:34:00,69.4,62.6,29.91,SW,225,1.0,3.0,79,0.00,BKN,BKN,0.00,WeatherDisplay:10.37,2013-09-07 01:34:00,
2013-09-06 18:44:00,69.1,62.3,29.91,SSE,150,1.0,3.0,79,0.00,BKN,BKN,0.00,WeatherDisplay:10.37,2013-09-07 01:44:00,
2013-09-06 18:54:00,68.7,62.3,29.93,East,86,0.0,2.0,80,0.00,BKN,BKN,0.00,WeatherDisplay:10.37,2013-09-07 01:54:00,
2013-09-06 19:04:00,68.5,62.1,29.93,South,187,0.0,1.0,80,0.00,BKN,BKN,0.00,WeatherDisplay:10.37,2013-09-07 02:04:00,
2013-09-06 19:09:00,68.4,62.3,29.93,WSW,256,0.0,1.0,81,0.00,BKN,BKN,0.00,WeatherDisplay:10.37,2013-09-07 02:09:00,
2013-09-06 19:15:00,68.2,62.1,29.92,WSW,243,0.0,1.0,81,0.00,BKN,BKN,0.00,WeatherDisplay:10.37,2013-09-07 02:15:00,
2013-09-06 19:25:00,68.0,61.9,29.92,South,189,1.0,3.0,81,0.00,BKN,BKN,0.00,WeatherDisplay:10.37,2013-09-07 02:25:00,
2013-09-06 19:35:00,67.6,61.9,29.92,SSE,168,0.0,1.0,82,0.00,BKN,BKN,0.00,WeatherDisplay:10.37,2013-09-07 02:35:00,
2013-09-06 19:45:00,67.5,61.8,29.92,South,173,0.0,4.0,82,0.00,BKN,BKN,0.00,WeatherDisplay:10.37,2013-09-07 02:45:00,
2013-09-06 19:55:00,67.1,61.8,29.92,SSW,212,1.0,3.0,83,0.00,BKN,BKN,0.00,WeatherDisplay:10.37,2013-09-07 02:55:00,
2013-09-06 20:04:00,66.7,61.4,29.92,SW,229,0.0,2.0,83,0.00,BKN,BKN,0.00,WeatherDisplay:10.37,2013-09-07 03:04:00,
2013-09-06 20:09:00,66.6,61.2,29.92,WSW,248,0.0,1.0,83,0.00,BKN,BKN,0.00,WeatherDisplay:10.37,2013-09-07 03:09:00,
2013-09-06 20:14:00,66.4,61.1,29.93,WSW,254,0.0,2.0,83,0.00,BKN,BKN,0.00,WeatherDisplay:10.37,2013-09-07 03:14:00,
2013-09-06 20:24:00,66.0,60.7,29.93,WSW,249,0.0,0.0,83,0.00,BKN,BKN,0.00,WeatherDisplay:10.37,2013-09-07 03:24:00,
2013-09-06 20:34:00,65.8,60.9,29.94,WNW,289,0.0,0.0,84,0.00,BKN,BKN,0.00,WeatherDisplay:10.37,2013-09-07 03:34:00,
2013-09-06 20:44:00,65.7,60.7,29.94,WSW,246,0.0,1.0,84,0.00,BKN,BKN,0.00,WeatherDisplay:10.37,2013-09-07 03:44:00,
2013-09-06 20:54:00,65.5,60.5,29.94,SSW,208,0.0,1.0,84,0.00,BKN,BKN,0.00,WeatherDisplay:10.37,2013-09-07 03:54:00,
2013-09-06 21:04:00,65.3,60.3,29.94,WSW,237,0.0,0.0,84,0.00,BKN,BKN,0.00,WeatherDisplay:10.37,2013-09-07 04:04:00,
2013-09-06 21:14:00,65.1,60.2,29.95,West,277,0.0,0.0,84,0.00,FEW,FEW,0.00,WeatherDisplay:10.37,2013-09-07 04:14:00,
2013-09-06 21:19:00,64.9,60.0,29.95,West,267,0.0,0.0,84,0.00,FEW,FEW,0.00,WeatherDisplay:10.37,2013-09-07 04:19:00,
2013-09-06 21:24:00,64.9,60.0,29.95,West,268,0.0,0.0,84,0.00,FEW,FEW,0.00,WeatherDisplay:10.37,2013-09-07 04:24:00,
2013-09-06 21:34:00,64.6,59.6,29.94,West,272,0.0,0.0,84,0.00,FEW,FEW,0.00,WeatherDisplay:10.37,2013-09-07 04:34:00,
2013-09-06 21:44:00,64.6,59.6,29.94,WNW,297,0.0,0.0,84,0.00,FEW,FEW,0.00,WeatherDisplay:10.37,2013-09-07 04:44:00,
2013-09-06 21:54:00,64.4,59.8,29.95,NW,309,0.0,0.0,85,0.00,FEW,FEW,0.00,WeatherDisplay:10.37,2013-09-07 04:54:00,
2013-09-06 22:04:00,64.4,59.8,29.95,West,270,0.0,0.0,85,0.00,FEW,FEW,0.00,WeatherDisplay:10.37,2013-09-07 05:04:00,
2013-09-06 22:09:00,64.2,59.6,29.95,WSW,258,0.0,0.0,85,0.00,CLR,CLR,0.00,WeatherDisplay:10.37,2013-09-07 05:09:00,
2013-09-06 22:14:00,64.2,59.6,29.95,West,260,0.0,0.0,85,0.00,CLR,CLR,0.00,WeatherDisplay:10.37,2013-09-07 05:14:00,
2013-09-06 22:24:00,64.2,59.6,29.95,West,281,0.0,0.0,85,0.00,CLR,CLR,0.00,WeatherDisplay:10.37,2013-09-07 05:24:00,
2013-09-06 22:34:00,64.2,59.9,29.97,West,268,0.0,0.0,86,0.00,CLR,CLR,0.00,WeatherDisplay:10.37,2013-09-07 05:34:00,
2013-09-06 22:44:00,64.0,59.8,29.97,WSW,250,0.0,0.0,86,0.00,CLR,CLR,0.00,WeatherDisplay:10.37,2013-09-07 05:44:00,
2013-09-06 22:54:00,63.9,59.6,29.95,West,261,0.0,0.0,86,0.00,CLR,CLR,0.00,WeatherDisplay:10.37,2013-09-07 05:54:00,
2013-09-06 23:04:00,63.9,59.6,29.95,NNW,336,0.0,0.0,86,0.00,CLR,CLR,0.00,WeatherDisplay:10.37,2013-09-07 06:04:00,
2013-09-06 23:09:00,63.9,59.9,29.95,West,278,0.0,0.0,87,0.00,BKN,BKN,0.00,WeatherDisplay:10.37,2013-09-07 06:09:00,
2013-09-06 23:14:00,63.9,59.9,29.96,WNW,290,0.0,0.0,87,0.00,BKN,BKN,0.00,WeatherDisplay:10.37,2013-09-07 06:14:00,
2013-09-06 23:24:00,63.7,59.4,29.96,WSW,247,0.0,0.0,86,0.00,BKN,BKN,0.00,WeatherDisplay:10.37,2013-09-07 06:24:00,
2013-09-06 23:29:00,63.7,59.4,29.96,SSW,207,0.0,0.0,86,0.00,BKN,BKN,0.00,WeatherDisplay:10.37,2013-09-07 06:29:00,
2013-09-06 23:34:00,63.7,59.4,29.95,South,180,0.0,0.0,86,0.00,BKN,BKN,0.00,WeatherDisplay:10.37,2013-09-07 06:34:00,
2013-09-06 23:44:00,63.7,59.4,29.95,SW,217,0.0,0.0,86,0.00,BKN,BKN,0.00,WeatherDisplay:10.37,2013-09-07 06:44:00,
2013-09-06 23:49:00,63.5,59.2,29.95,SW,220,0.0,0.0,86,0.00,BKN,BKN,0.00,WeatherDisplay:10.37,2013-09-07 06:49:00,
2013-09-06 23:54:00,63.5,59.2,29.95,ESE,111,0.0,1.0,86,0.00,BKN,BKN,0.00,WeatherDisplay:10.37,2013-09-07 06:54:00,